This is the latest recevied weather packets stored in our database for station/object KC0MWM-2. If no packets are shown the sender has not sent any weather packets the latest 10 day(s).
| Time | Temp. | Humidity | Pressure | Rain* | Wind** | Luminosity | Snow |
|---|---|---|---|---|---|---|---|
| 1777506975 | 16.67° C | 52% | 1018.6 hPa | 0 mm | - | - | - |
| 1777505775 | 16.67° C | 49% | 1018.3 hPa | 0 mm | - | - | - |
| 1777501577 | 17.78° C | 45% | 1018.7 hPa | 0 mm | - | - | - |
| 1777496777 | 16.11° C | 51% | 1019.8 hPa | 0 mm | - | - | - |
| 1777486577 | 14.44° C | 56% | 1022.6 hPa | 0 mm | - | - | - |
| 1777485377 | 13.89° C | 56% | 1023 hPa | 0 mm | - | - | - |
| 1777481777 | 12.22° C | 63% | 1023.5 hPa | 0 mm | - | - | - |
| 1777478776 | 10.56° C | 72% | 1023.9 hPa | 0 mm | - | - | - |
| 1777478176 | 10.56° C | 73% | 1023.7 hPa | 0 mm | - | - | - |
| 1777476976 | 10° C | 77% | 1024.1 hPa | 0 mm | - | - | - |
| 1777476396 | 10° C | 79% | 1023.9 hPa | 0 mm | - | - | - |
| 1777474576 | 8.33° C | 83% | 1024 hPa | 0 mm | - | - | - |
| 1777471576 | 5.56° C | 90% | 1023.7 hPa | 0 mm | - | - | - |
| 1777467976 | 2.22° C | 96% | 1023.3 hPa | 0 mm | - | - | - |
| 1777466776 | 1.67° C | 97% | 1023.1 hPa | 0 mm | - | - | - |
| 1777466176 | 1.11° C | 97% | 1023.1 hPa | 0 mm | - | - | - |
| 1777460776 | 0.56° C | 97% | 1022.5 hPa | 0 mm | - | - | - |
| 1777458976 | 0.56° C | 97% | 1022.4 hPa | 0 mm | - | - | - |
| 1777457196 | 0.56° C | 97% | 1022.2 hPa | 0.25 mm | - | - | - |
| 1777451775 | 1.67° C | 97% | 1022.2 hPa | 0 mm | - | - | - |
| 1777450575 | 1.67° C | 97% | 1022.4 hPa | 0 mm | - | - | - |
| 1777449395 | 2.22° C | 97% | 1022.4 hPa | 0 mm | - | - | - |
| 1777446975 | 1.67° C | 97% | 1022.4 hPa | 0 mm | - | - | - |
| 1777440977 | 2.78° C | 97% | 1022.2 hPa | 0 mm | - | - | - |
| 1777439177 | 2.78° C | 97% | 1022 hPa | 0 mm | - | - | - |
* Rain latest hour (hover to see other rain measurements)
** Current wind speed in m/s (hover to see current wind gust speed)